Time;durP1;ratioP1;P1;durP2;ratioP2;P2;SDS_P1;SDS_P2;PMS_P1;PMS_P2;Temp;Humidity;BMP_temperature;BMP_pressure;BME280_temperature;BME280_humidity;BME280_pressure;Samples;Min_cycle;Max_cycle;Signal;HPM_P1;HPM_P2
2023/12/30 00:02:05;;;;;;;8.83;1.30;;;;;;;;;;4993990;28;20023;-78
2023/12/30 00:04:37;;;;;;;9.37;1.60;;;;;;;;;;4998069;28;20003;-79
2023/12/30 00:07:26;;;;;;;11.32;1.40;;;;;;;;;;4977174;28;20024;-78
2023/12/30 00:09:58;;;;;;;8.90;1.47;;;;;;;;;;4978720;28;20039;-78
2023/12/30 00:12:35;;;;;;;18.63;2.60;;;;;;;;;;4979215;28;20050;-79
2023/12/30 00:15:13;;;;;;;11.80;2.00;;;;;;;;;;4978635;28;20030;-78
2023/12/30 00:17:42;;;;;;;10.97;1.67;;;;;;;;;;4980646;28;20065;-78
2023/12/30 00:20:25;;;;;;;;;;;;;;;;;;;;;
2023/12/30 00:23:03;;;;;;;4.67;1.20;;;;;;;;;;4993728;28;20028;-79
2023/12/30 00:25:41;;;;;;;13.83;2.30;;;;;;;;;;4989067;28;20042;-79
2023/12/30 00:28:09;;;;;;;13.80;2.60;;;;;;;;;;4996055;28;20019;-79
2023/12/30 00:30:51;;;;;;;13.93;2.17;;;;;;;;;;4995815;28;20031;-79
2023/12/30 00:33:20;;;;;;;11.53;2.23;;;;;;;;;;4988718;28;20041;-79
2023/12/30 00:35:52;;;;;;;11.13;2.57;;;;;;;;;;4980410;28;20022;-78
2023/12/30 00:38:20;;;;;;;8.27;1.52;;;;;;;;;;4990203;28;20070;-78
2023/12/30 00:40:51;;;;;;;14.23;2.20;;;;;;;;;;4984371;28;20525;-78
2023/12/30 00:43:20;;;;;;;11.23;1.93;;;;;;;;;;4984945;28;20023;-78
2023/12/30 00:45:50;;;;;;;15.63;1.93;;;;;;;;;;4999400;28;20043;-79
2023/12/30 00:48:20;;;;;;;19.67;2.67;;;;;;;;;;4989562;28;20022;-79
2023/12/30 00:51:06;;;;;;;13.33;2.47;;;;;;;;;;4987646;28;20019;-78
2023/12/30 00:53:32;;;;;;;8.37;2.33;;;;;;;;;;4987186;28;20043;-80
2023/12/30 00:56:30;;;;;;;12.37;2.13;;;;;;;;;;4994251;28;20015;-78
2023/12/30 00:59:23;;;;;;;19.07;2.07;;;;;;;;;;4998054;28;20026;-79
2023/12/30 01:02:08;;;;;;;;;;;;;;;;;;;;;
2023/12/30 01:07:28;;;;;;;12.40;2.77;;;;;;;;;;4973871;28;20027;-79
2023/12/30 01:09:54;;;;;;;15.00;2.20;;;;;;;;;;4992368;28;20035;-79
2023/12/30 01:12:30;;;;;;;13.80;2.37;;;;;;;;;;4988868;28;20019;-78
2023/12/30 01:15:32;;;;;;;15.40;2.83;;;;;;;;;;4992014;23;20062;-78
2023/12/30 01:18:03;;;;;;;12.47;3.17;;;;;;;;;;4966042;28;20035;-78
2023/12/30 01:20:40;;;;;;;14.17;2.00;;;;;;;;;;4976146;28;20038;-79
2023/12/30 01:23:18;;;;;;;10.43;2.03;;;;;;;;;;4963901;28;20043;-78
2023/12/30 01:25:56;;;;;;;11.03;2.17;;;;;;;;;;4972637;28;20091;-78
2023/12/30 01:28:46;;;;;;;11.73;2.20;;;;;;;;;;4974557;28;20024;-79
2023/12/30 01:31:17;;;;;;;10.90;2.10;;;;;;;;;;4975498;28;20039;-79
2023/12/30 01:34:16;;;;;;;;;;;;;;;;;;;;;
2023/12/30 01:36:58;;;;;;;13.53;2.00;;;;;;;;;;4975270;28;20046;-80
2023/12/30 01:39:27;;;;;;;12.68;2.10;;;;;;;;;;4972811;28;20051;-79
2023/12/30 01:41:55;;;;;;;14.83;2.47;;;;;;;;;;4962129;28;20115;-78
2023/12/30 01:44:26;;;;;;;10.27;2.17;;;;;;;;;;4969356;28;20023;-79
2023/12/30 01:47:00;;;;;;;10.30;1.83;;;;;;;;;;4970247;28;20104;-79
2023/12/30 01:49:39;;;;;;;8.87;1.50;;;;;;;;;;4974878;28;20050;-79
2023/12/30 01:52:15;;;;;;;15.47;2.50;;;;;;;;;;4973645;28;20042;-79
2023/12/30 01:54:52;;;;;;;15.00;2.20;;;;;;;;;;4970459;28;20042;-78
2023/12/30 01:57:20;;;;;;;14.80;1.87;;;;;;;;;;4970434;28;20011;-79
2023/12/30 01:59:57;;;;;;;9.97;1.47;;;;;;;;;;4958170;28;20040;-78
2023/12/30 02:02:44;;;;;;;;;;;;;;;;;;;;;
2023/12/30 02:05:18;;;;;;;10.33;1.83;;;;;;;;;;4975133;28;20058;-78
2023/12/30 02:07:50;;;;;;;11.10;1.63;;;;;;;;;;4962979;28;20019;-78
2023/12/30 02:10:38;;;;;;;9.87;2.07;;;;;;;;;;4972252;28;20116;-78
2023/12/30 02:13:07;;;;;;;15.53;1.90;;;;;;;;;;4958714;28;20040;-78
2023/12/30 02:15:51;;;;;;;;;;;;;;;;;;;;;
2023/12/30 02:18:29;;;;;;;21.57;2.87;;;;;;;;;;5010118;28;20049;-78
2023/12/30 02:24:08;;;;;;;11.07;2.60;;;;;;;;;;4979685;28;20041;-79
2023/12/30 02:26:39;;;;;;;10.50;1.70;;;;;;;;;;5008016;28;20026;-78
2023/12/30 02:32:08;;;;;;;13.70;2.63;;;;;;;;;;5000754;28;20019;-78
2023/12/30 02:34:34;;;;;;;14.23;1.97;;;;;;;;;;4993541;28;20034;-78
2023/12/30 02:37:11;;;;;;;15.00;2.00;;;;;;;;;;5006434;28;20039;-78
2023/12/30 02:39:44;;;;;;;16.03;2.30;;;;;;;;;;4992851;28;20026;-79
2023/12/30 02:48:21;;;;;;;15.13;1.77;;;;;;;;;;4996589;28;20026;-78
2023/12/30 02:51:11;;;;;;;13.77;1.50;;;;;;;;;;4995643;28;20037;-79
2023/12/30 02:53:45;;;;;;;9.80;2.17;;;;;;;;;;4995142;28;20164;-77
2023/12/30 02:56:35;;;;;;;;;;;;;;;;;;;;;
2023/12/30 02:59:24;;;;;;;9.60;2.03;;;;;;;;;;5011241;28;20034;-78
2023/12/30 03:01:52;;;;;;;11.70;1.97;;;;;;;;;;5010260;28;20031;-79
2023/12/30 03:04:27;;;;;;;12.17;2.03;;;;;;;;;;5000364;28;20023;-79
2023/12/30 03:07:01;;;;;;;14.00;2.00;;;;;;;;;;4993550;28;20036;-79
2023/12/30 03:09:57;;;;;;;8.20;1.43;;;;;;;;;;4993182;28;20027;-79
2023/12/30 03:12:36;;;;;;;;;;;;;;;;;;;;;
2023/12/30 03:20:42;;;;;;;9.87;1.97;;;;;;;;;;5009810;28;20023;-78
2023/12/30 03:23:21;;;;;;;17.07;2.13;;;;;;;;;;4994398;28;20010;-78
2023/12/30 03:25:47;;;;;;;8.13;1.47;;;;;;;;;;5008241;28;20022;-79
2023/12/30 03:28:15;;;;;;;14.80;1.73;;;;;;;;;;4993418;28;20030;-79
2023/12/30 03:30:48;;;;;;;12.57;1.77;;;;;;;;;;4995150;28;20033;-78
2023/12/30 03:33:26;;;;;;;15.90;2.40;;;;;;;;;;4992370;28;20041;-79
2023/12/30 03:36:08;;;;;;;;;;;;;;;;;;;;;
2023/12/30 03:38:55;;;;;;;17.87;1.60;;;;;;;;;;5010870;28;20041;-79
2023/12/30 03:41:39;;;;;;;14.83;2.60;;;;;;;;;;5009661;28;20015;-78
2023/12/30 03:44:26;;;;;;;;;;;;;;;;;;;;;
2023/12/30 03:47:24;;;;;;;21.93;2.83;;;;;;;;;;5008732;28;20042;-78
2023/12/30 03:50:03;;;;;;;13.37;2.43;;;;;;;;;;5008966;28;20030;-78
2023/12/30 03:52:29;;;;;;;13.47;2.27;;;;;;;;;;4995699;28;20040;-78
2023/12/30 03:55:23;;;;;;;;;;;;;;;;;;;;;
2023/12/30 03:57:59;;;;;;;24.03;3.10;;;;;;;;;;5009590;28;20054;-79
2023/12/30 04:00:33;;;;;;;13.57;1.77;;;;;;;;;;5008060;28;20043;-78
2023/12/30 04:03:22;;;;;;;15.23;1.73;;;;;;;;;;4994394;28;20102;-79
2023/12/30 04:06:08;;;;;;;12.30;1.87;;;;;;;;;;5008257;28;20043;-78
2023/12/30 04:08:52;;;;;;;;;;;;;;;;;;;;;
2023/12/30 04:11:28;;;;;;;17.27;2.07;;;;;;;;;;5014814;28;20053;-79
2023/12/30 04:14:02;;;;;;;13.63;2.40;;;;;;;;;;5001811;28;20150;-78
2023/12/30 04:16:33;;;;;;;12.97;1.73;;;;;;;;;;5013688;28;20197;-78
2023/12/30 04:19:50;;;;;;;;;;;;;;;;;;;;;
2023/12/30 04:22:39;;;;;;;13.27;2.43;;;;;;;;;;5013199;28;20050;-79
2023/12/30 04:25:23;;;;;;;17.00;2.33;;;;;;;;;;5014028;28;20034;-78
2023/12/30 04:28:11;;;;;;;10.63;2.10;;;;;;;;;;4999451;28;20026;-79
2023/12/30 04:30:45;;;;;;;15.47;2.77;;;;;;;;;;4997889;28;20022;-78
2023/12/30 04:33:14;;;;;;;13.60;2.17;;;;;;;;;;5012638;28;20023;-79
2023/12/30 04:35:47;;;;;;;17.03;2.47;;;;;;;;;;4997610;28;20029;-78
2023/12/30 04:38:21;;;;;;;10.90;2.13;;;;;;;;;;4998963;28;20026;-79
2023/12/30 04:41:07;;;;;;;15.93;2.47;;;;;;;;;;4993906;28;20034;-78
2023/12/30 04:44:05;;;;;;;17.57;2.57;;;;;;;;;;5004587;28;20038;-79
2023/12/30 04:46:41;;;;;;;;;;;;;;;;;;;;;
2023/12/30 04:49:22;;;;;;;16.63;2.60;;;;;;;;;;5011157;28;20022;-79
2023/12/30 04:52:04;;;;;;;16.93;2.37;;;;;;;;;;5003304;28;20078;-78
2023/12/30 04:54:35;;;;;;;18.92;2.33;;;;;;;;;;5006902;28;20018;-79
2023/12/30 04:57:10;;;;;;;19.70;2.93;;;;;;;;;;5021541;28;20010;-79
2023/12/30 05:00:05;;;;;;;17.83;2.67;;;;;;;;;;5004722;28;20014;-78
2023/12/30 05:02:33;;;;;;;12.43;1.77;;;;;;;;;;5016305;28;20011;-78
2023/12/30 05:05:04;;;;;;;11.40;2.83;;;;;;;;;;5000402;28;20030;-79
2023/12/30 05:07:37;;;;;;;16.73;2.70;;;;;;;;;;5004271;28;20078;-79
2023/12/30 05:15:50;;;;;;;14.37;3.00;;;;;;;;;;5010987;28;20041;-78
2023/12/30 05:18:24;;;;;;;15.67;2.73;;;;;;;;;;5002966;28;20009;-78
2023/12/30 05:21:03;;;;;;;15.07;2.03;;;;;;;;;;5003755;28;20018;-79
2023/12/30 05:23:57;;;;;;;10.70;1.93;;;;;;;;;;5016978;28;20058;-79
2023/12/30 05:26:25;;;;;;;10.67;2.20;;;;;;;;;;5011987;28;20061;-78
2023/12/30 05:29:01;;;;;;;;;;;;;;;;;;;;;
2023/12/30 05:31:35;;;;;;;14.97;2.07;;;;;;;;;;5014597;28;20031;-79
2023/12/30 05:34:04;;;;;;;10.13;2.57;;;;;;;;;;4994969;28;20014;-79
2023/12/30 05:36:38;;;;;;;15.10;2.10;;;;;;;;;;5002637;28;20006;-77
2023/12/30 05:39:14;;;;;;;18.10;2.20;;;;;;;;;;5000714;28;20010;-79
2023/12/30 05:41:51;;;;;;;16.23;2.30;;;;;;;;;;5000800;28;20141;-78
2023/12/30 05:44:37;;;;;;;15.17;2.60;;;;;;;;;;5000445;28;20010;-79
2023/12/30 05:47:31;;;;;;;11.33;1.93;;;;;;;;;;4999325;28;20034;-79
2023/12/30 05:50:02;;;;;;;6.90;1.97;;;;;;;;;;5000768;28;20011;-78
2023/12/30 05:52:38;;;;;;;;;;;;;;;;;;;;;
2023/12/30 05:55:14;;;;;;;16.30;2.83;;;;;;;;;;5016896;28;20053;-79
2023/12/30 05:57:44;;;;;;;19.03;2.43;;;;;;;;;;5001187;28;20018;-79
2023/12/30 06:00:16;;;;;;;20.50;2.87;;;;;;;;;;5000265;28;20010;-79
2023/12/30 06:02:57;;;;;;;11.80;2.85;;;;;;;;;;4991315;28;20266;-79
2023/12/30 06:05:25;;;;;;;9.83;2.23;;;;;;;;;;5015941;28;20045;-78
2023/12/30 06:08:25;;;;;;;18.53;3.30;;;;;;;;;;5003420;28;20026;-78
2023/12/30 06:10:53;;;;;;;9.07;2.17;;;;;;;;;;5000809;28;20003;-78
2023/12/30 06:13:34;;;;;;;11.47;2.20;;;;;;;;;;5012656;28;20010;-79
2023/12/30 06:16:10;;;;;;;18.40;2.37;;;;;;;;;;5003048;28;20046;-79
2023/12/30 06:18:53;;;;;;;18.53;2.47;;;;;;;;;;4999043;28;20027;-79
2023/12/30 06:21:22;;;;;;;18.17;2.83;;;;;;;;;;4995865;28;20027;-78
2023/12/30 06:23:53;;;;;;;14.10;1.63;;;;;;;;;;4997249;28;20034;-79
2023/12/30 06:26:45;;;;;;;12.33;1.87;;;;;;;;;;5012456;28;20041;-78
2023/12/30 06:29:11;;;;;;;11.33;2.07;;;;;;;;;;5003623;28;20026;-78
2023/12/30 06:31:46;;;;;;;11.87;2.20;;;;;;;;;;4996919;28;20309;-78
2023/12/30 06:34:34;;;;;;;17.93;2.40;;;;;;;;;;4992573;28;20026;-79
2023/12/30 06:37:05;;;;;;;14.10;2.47;;;;;;;;;;4996681;28;20034;-78
2023/12/30 06:39:43;;;;;;;13.10;2.33;;;;;;;;;;4995492;28;20033;-78
2023/12/30 06:42:29;;;;;;;10.67;1.70;;;;;;;;;;4996491;28;20037;-78
2023/12/30 06:45:13;;;;;;;;;;;;;;;;;;;;;
2023/12/30 06:47:47;;;;;;;13.70;1.93;;;;;;;;;;5011317;28;20049;-78
2023/12/30 06:50:36;;;;;;;16.07;2.80;;;;;;;;;;4995351;28;20054;-79
2023/12/30 06:53:12;;;;;;;15.60;1.80;;;;;;;;;;5010577;28;20022;-80
2023/12/30 06:56:13;;;;;;;12.83;2.53;;;;;;;;;;4994180;28;20050;-79
2023/12/30 06:58:45;;;;;;;15.43;2.23;;;;;;;;;;4993818;28;20018;-78
2023/12/30 07:01:25;;;;;;;14.45;2.55;;;;;;;;;;4994052;28;20023;-79
2023/12/30 07:04:01;;;;;;;9.70;1.73;;;;;;;;;;4995795;28;20030;-79
2023/12/30 07:06:54;;;;;;;;;;;;;;;;;;;;;
2023/12/30 07:09:26;;;;;;;17.90;2.57;;;;;;;;;;5011107;28;20301;-78
2023/12/30 07:12:03;;;;;;;14.32;1.95;;;;;;;;;;5006453;28;20034;-79
2023/12/30 07:14:37;;;;;;;12.27;2.27;;;;;;;;;;5008416;28;20053;-79
2023/12/30 07:17:03;;;;;;;12.60;2.33;;;;;;;;;;4994192;28;20045;-79
2023/12/30 07:19:38;;;;;;;9.33;2.23;;;;;;;;;;4992252;28;20022;-79
2023/12/30 07:22:06;;;;;;;12.13;1.80;;;;;;;;;;5009392;28;20049;-79
2023/12/30 07:27:43;;;;;;;8.97;1.70;;;;;;;;;;5010782;28;20019;-79
2023/12/30 07:30:32;;;;;;;11.63;2.63;;;;;;;;;;5008891;28;20026;-79
2023/12/30 07:33:03;;;;;;;10.60;2.20;;;;;;;;;;5009630;28;20090;-78
2023/12/30 07:35:32;;;;;;;12.10;2.00;;;;;;;;;;4992034;28;20098;-79
2023/12/30 07:38:35;;;;;;;;;;;;;;;;;;;;;
2023/12/30 07:41:27;;;;;;;10.33;1.70;;;;;;;;;;5010407;28;20181;-79
2023/12/30 07:44:03;;;;;;;11.50;2.20;;;;;;;;;;4995917;28;20102;-79
2023/12/30 07:46:38;;;;;;;9.60;2.50;;;;;;;;;;4995352;28;20042;-79
2023/12/30 07:49:22;;;;;;;13.80;2.20;;;;;;;;;;5006876;28;20022;-79
2023/12/30 07:51:53;;;;;;;12.10;1.87;;;;;;;;;;4991693;28;20026;-78
2023/12/30 07:54:19;;;;;;;9.23;1.70;;;;;;;;;;5008852;28;20038;-80
2023/12/30 07:57:16;;;;;;;13.53;2.87;;;;;;;;;;4976305;28;20492;-78
2023/12/30 07:59:49;;;;;;;11.07;2.23;;;;;;;;;;4976677;28;20049;-79
2023/12/30 08:02:18;;;;;;;;;;;;;;;;;;4974229;28;20137;-79
2023/12/30 08:04:54;;;;;;;;;;;;;;;;;;;;;
2023/12/30 08:07:25;;;;;;;12.33;3.00;;;;;;;;;;4988226;28;20043;-79
2023/12/30 08:09:59;;;;;;;16.87;2.20;;;;;;;;;;4975243;28;20027;-78
2023/12/30 08:12:36;;;;;;;13.50;2.67;;;;;;;;;;4991117;28;20038;-79
2023/12/30 08:15:10;;;;;;;12.03;2.47;;;;;;;;;;4974995;28;20058;-79
2023/12/30 08:20:54;;;;;;;10.50;1.80;;;;;;;;;;4990291;28;20026;-78
2023/12/30 08:23:20;;;;;;;15.00;2.00;;;;;;;;;;4975299;28;20021;-80
2023/12/30 08:25:48;;;;;;;10.63;2.10;;;;;;;;;;4974319;28;20027;-78
2023/12/30 08:28:27;;;;;;;;;;;;;;;;;;;;;
2023/12/30 08:31:03;;;;;;;14.60;2.53;;;;;;;;;;4990362;28;20057;-77
2023/12/30 08:33:37;;;;;;;9.50;2.00;;;;;;;;;;4973596;28;20046;-79
2023/12/30 08:36:15;;;;;;;;;;;;;;;;;;;;;
2023/12/30 08:38:44;;;;;;;12.37;1.93;;;;;;;;;;4992121;28;20043;-78
2023/12/30 08:41:23;;;;;;;12.63;2.63;;;;;;;;;;4976338;28;20015;-80
2023/12/30 08:44:00;;;;;;;10.80;2.63;;;;;;;;;;4977007;28;20027;-80
2023/12/30 08:46:39;;;;;;;9.73;2.37;;;;;;;;;;4975033;28;20023;-79
2023/12/30 08:49:05;;;;;;;13.67;2.40;;;;;;;;;;4975859;28;20014;-80
2023/12/30 08:51:45;;;;;;;8.17;2.67;;;;;;;;;;4975305;28;20027;-79
2023/12/30 08:54:16;;;;;;;14.37;2.10;;;;;;;;;;4974677;28;20050;-78
2023/12/30 08:56:44;;;;;;;13.90;2.30;;;;;;;;;;4976240;28;20019;-79
2023/12/30 08:59:18;;;;;;;18.00;2.07;;;;;;;;;;4977754;28;20029;-80
2023/12/30 09:02:05;;;;;;;13.17;1.97;;;;;;;;;;4978302;28;20042;-79
2023/12/30 09:04:43;;;;;;;;;;;;;;;;;;;;;
2023/12/30 09:07:14;;;;;;;20.87;2.53;;;;;;;;;;4995633;28;20047;-78
2023/12/30 09:09:49;;;;;;;17.97;2.53;;;;;;;;;;4979836;28;20022;-79
2023/12/30 09:15:27;;;;;;;16.30;2.17;;;;;;;;;;4983318;28;20038;-80
2023/12/30 09:17:57;;;;;;;11.93;2.20;;;;;;;;;;4979544;28;20023;-79
2023/12/30 09:20:46;;;;;;;11.20;2.23;;;;;;;;;;4978496;28;20094;-79
2023/12/30 09:23:17;;;;;;;16.77;2.17;;;;;;;;;;4978970;28;20042;-79
2023/12/30 09:26:00;;;;;;;6.57;1.80;;;;;;;;;;4978821;28;20034;-80
2023/12/30 09:28:34;;;;;;;15.50;2.50;;;;;;;;;;4979171;28;20059;-79
2023/12/30 09:31:02;;;;;;;14.17;2.30;;;;;;;;;;4978178;28;20035;-78
2023/12/30 09:33:44;;;;;;;;;;;;;;;;;;;;;
2023/12/30 09:36:17;;;;;;;12.30;2.55;;;;;;;;;;4992701;28;20057;-78
2023/12/30 09:38:53;;;;;;;;;;;;;;;;;;;;;
2023/12/30 09:41:34;;;;;;;;;;;;;;;;;;;;;
2023/12/30 09:44:10;;;;;;;15.30;2.50;;;;;;;;;;5043262;23;20070;-78
2023/12/30 09:46:53;;;;;;;;;;;;;;;;;;;;;
2023/12/30 09:49:30;;;;;;;9.70;1.60;;;;;;;;;;5016720;28;20030;-78
2023/12/30 09:52:06;;;;;;;;;;;;;;;;;;;;;
2023/12/30 09:54:41;;;;;;;11.43;1.80;;;;;;;;;;5013786;28;20061;-77
2023/12/30 09:57:20;;;;;;;11.63;2.73;;;;;;;;;;4998897;28;20099;-78
2023/12/30 10:00:10;;;;;;;17.57;2.27;;;;;;;;;;5014928;28;20011;-78
2023/12/30 10:02:59;;;;;;;11.97;2.70;;;;;;;;;;5012464;28;20027;-79
2023/12/30 10:05:38;;;;;;;;;;;;;;;;;;;;;
2023/12/30 10:08:29;;;;;;;10.73;2.10;;;;;;;;;;5014356;28;20041;-78
2023/12/30 10:11:10;;;;;;;6.77;1.70;;;;;;;;;;5015521;28;20025;-78
2023/12/30 10:16:14;;;;;;;13.80;2.07;;;;;;;;;;5117674;23;20074;-77
2023/12/30 10:21:35;;;;;;;7.43;1.60;;;;;;;;;;5004263;28;20030;-77
2023/12/30 10:29:25;;;;;;;16.50;2.63;;;;;;;;;;5605968;23;20070;-76
2023/12/30 10:35:14;;;;;;;10.93;3.00;;;;;;;;;;4988609;28;20053;-76
2023/12/30 10:41:29;;;;;;;17.77;2.47;;;;;;;;;;5032418;23;20066;-77
2023/12/30 11:02:47;;;;;;;13.00;1.87;;;;;;;;;;4987541;28;20023;-79
2023/12/30 11:05:39;;;;;;;14.73;2.30;;;;;;;;;;4999964;28;20007;-77
2023/12/30 11:08:21;;;;;;;;;;;;;;;;;;;;;
2023/12/30 11:11:31;;;;;;;10.25;1.88;;;;;;;;;;4996569;28;20027;-78
2023/12/30 11:14:25;;;;;;;;;;;;;;;;;;;;;
2023/12/30 11:20:12;;;;;;;11.77;2.03;;;;;;;;;;4982572;28;20003;-78
2023/12/30 11:23:04;;;;;;;;;;;;;;;;;;;;;
2023/12/30 11:25:53;;;;;;;8.40;1.95;;;;;;;;;;4991039;28;20034;-78
2023/12/30 11:28:40;;;;;;;12.17;1.33;;;;;;;;;;4996345;28;20063;-78
2023/12/30 11:31:22;;;;;;;;;;;;;;;;;;;;;
2023/12/30 11:33:54;;;;;;;9.82;1.58;;;;;;;;;;5061649;23;20061;-78
2023/12/30 11:36:26;;;;;;;9.37;1.87;;;;;;;;;;4973645;28;20034;-79
2023/12/30 11:38:58;;;;;;;4.78;1.45;;;;;;;;;;4965818;28;20055;-80
2023/12/30 11:41:38;;;;;;;;;;;;;;;;;;;;;
2023/12/30 11:44:05;;;;;;;9.60;2.43;;;;;;;;;;5046282;23;20073;-79
2023/12/30 11:46:36;;;;;;;6.70;1.67;;;;;;;;;;4983973;28;20042;-79
2023/12/30 11:52:12;;;;;;;9.43;1.67;;;;;;;;;;5021922;23;20042;-80
2023/12/30 11:54:51;;;;;;;9.57;2.00;;;;;;;;;;4981625;28;20045;-78
2023/12/30 11:57:17;;;;;;;12.17;1.60;;;;;;;;;;4979491;28;20006;-79
2023/12/30 11:59:50;;;;;;;13.67;2.30;;;;;;;;;;4977072;28;20014;-79
2023/12/30 12:02:33;;;;;;;12.00;2.13;;;;;;;;;;4976174;28;20007;-77
2023/12/30 12:05:07;;;;;;;6.90;1.30;;;;;;;;;;4973849;28;20041;-79
2023/12/30 12:07:45;;;;;;;15.40;2.10;;;;;;;;;;4982050;28;20045;-78
2023/12/30 12:10:13;;;;;;;9.20;1.67;;;;;;;;;;4975826;28;20025;-78
2023/12/30 12:13:15;;;;;;;;;;;;;;;;;;;;;
2023/12/30 12:15:34;;;;;;;12.47;1.83;;;;;;;;;;4986169;28;20030;-79
2023/12/30 12:18:25;;;;;;;7.00;2.37;;;;;;;;;;4988928;28;21182;-79
2023/12/30 12:21:18;;;;;;;6.10;1.23;;;;;;;;;;4971834;28;20094;-79
2023/12/30 12:23:53;;;;;;;10.70;1.47;;;;;;;;;;4988283;28;20015;-80
2023/12/30 12:26:55;;;;;;;7.37;1.30;;;;;;;;;;4986574;28;20030;-79
2023/12/30 12:29:40;;;;;;;9.27;1.50;;;;;;;;;;4983579;28;20027;-80
2023/12/30 12:32:38;;;;;;;8.93;1.80;;;;;;;;;;4989402;28;20280;-80
2023/12/30 12:35:14;;;;;;;10.03;1.67;;;;;;;;;;4970204;28;20039;-80
2023/12/30 12:37:40;;;;;;;7.90;1.27;;;;;;;;;;4976478;28;20031;-79
2023/12/30 12:40:20;;;;;;;;;;;;;;;;;;;;;
2023/12/30 12:42:51;;;;;;;3.73;1.00;;;;;;;;;;4991850;28;20043;-80
2023/12/30 12:45:35;;;;;;;5.77;1.30;;;;;;;;;;4978476;28;20038;-79
2023/12/30 12:48:06;;;;;;;8.23;1.43;;;;;;;;;;4978038;28;20030;-79
2023/12/30 12:50:38;;;;;;;8.43;1.20;;;;;;;;;;4974794;28;20260;-79
2023/12/30 12:53:11;;;;;;;9.75;1.70;;;;;;;;;;4975310;28;20037;-79
2023/12/30 12:55:40;;;;;;;6.70;1.90;;;;;;;;;;4973332;28;20061;-80
2023/12/30 12:58:07;;;;;;;8.27;1.67;;;;;;;;;;4976794;28;20050;-79
2023/12/30 13:00:38;;;;;;;10.77;1.73;;;;;;;;;;4972276;28;20019;-79
2023/12/30 13:03:27;;;;;;;8.30;1.97;;;;;;;;;;4976656;28;20087;-79
2023/12/30 13:05:58;;;;;;;7.13;1.23;;;;;;;;;;4973515;28;20035;-79
2023/12/30 13:08:39;;;;;;;;;;;;;;;;;;;;;
2023/12/30 13:11:32;;;;;;;10.83;1.97;;;;;;;;;;4992083;28;20059;-79
2023/12/30 13:14:14;;;;;;;6.95;1.70;;;;;;;;;;4973798;28;20069;-79
2023/12/30 13:16:43;;;;;;;4.77;1.27;;;;;;;;;;4975368;28;20022;-80
2023/12/30 13:22:06;;;;;;;8.17;1.43;;;;;;;;;;4991691;28;20040;-78
2023/12/30 13:24:38;;;;;;;7.17;1.20;;;;;;;;;;4990465;28;20035;-79
2023/12/30 13:27:17;;;;;;;;;;;;;;;;;;;;;
2023/12/30 13:29:46;;;;;;;10.33;1.80;;;;;;;;;;4994911;28;20051;-79
2023/12/30 13:32:15;;;;;;;10.30;1.87;;;;;;;;;;4976911;28;20033;-79
2023/12/30 13:34:43;;;;;;;11.57;2.00;;;;;;;;;;4974280;28;20041;-79
2023/12/30 13:37:17;;;;;;;5.33;1.40;;;;;;;;;;4975534;28;20045;-79
2023/12/30 13:39:48;;;;;;;8.83;1.57;;;;;;;;;;4972572;28;20039;-80
2023/12/30 13:42:24;;;;;;;;;;;;;;;;;;;;;
2023/12/30 13:44:57;;;;;;;6.50;1.30;;;;;;;;;;4990648;28;20047;-79
2023/12/30 13:52:43;;;;;;;7.73;1.37;;;;;;;;;;4991486;28;20038;-79
2023/12/30 13:55:22;;;;;;;5.13;1.30;;;;;;;;;;4972644;28;20034;-79
2023/12/30 13:58:09;;;;;;;9.23;1.33;;;;;;;;;;4975742;28;20014;-79
2023/12/30 14:06:53;;;;;;;9.80;1.20;;;;;;;;;;4937282;29;20153;-79
2023/12/30 14:09:37;;;;;;;7.30;1.20;;;;;;;;;;4915064;29;20032;-79
2023/12/30 14:12:08;;;;;;;10.30;1.10;;;;;;;;;;4934214;29;20039;-79
2023/12/30 14:14:46;;;;;;;5.50;1.30;;;;;;;;;;4933759;29;20040;-79
2023/12/30 14:17:19;;;;;;;6.17;1.87;;;;;;;;;;4919192;29;20016;-79
2023/12/30 14:20:04;;;;;;;6.33;1.10;;;;;;;;;;4919759;29;20056;-80
2023/12/30 14:23:02;;;;;;;3.83;1.33;;;;;;;;;;4915040;29;20047;-79
2023/12/30 14:25:41;;;;;;;8.53;1.77;;;;;;;;;;4935730;29;20012;-80
2023/12/30 14:28:07;;;;;;;6.55;1.65;;;;;;;;;;4919698;29;20095;-80
2023/12/30 14:30:49;;;;;;;7.40;1.57;;;;;;;;;;4936165;29;20028;-79
2023/12/30 14:33:28;;;;;;;;;;;;;;;;;;;;;
2023/12/30 14:35:59;;;;;;;12.70;2.07;;;;;;;;;;4940654;28;20327;-80
2023/12/30 14:38:32;;;;;;;6.43;2.17;;;;;;;;;;4975552;28;20015;-78
2023/12/30 14:41:21;;;;;;;15.37;1.83;;;;;;;;;;4973448;28;20062;-79
2023/12/30 14:51:39;;;;;;;9.80;1.33;;;;;;;;;;4989945;28;20038;-79
2023/12/30 14:54:28;;;;;;;7.07;1.80;;;;;;;;;;4976663;28;20153;-79
2023/12/30 14:57:09;;;;;;;;;;;;;;;;;;;;;
2023/12/30 15:00:08;;;;;;;5.37;1.30;;;;;;;;;;4992600;28;20050;-80
2023/12/30 15:03:47;;;;;;;;;;;;;;;;;;;;;
2023/12/30 15:05:53;;;;;;;7.13;1.20;;;;;;;;;;4977573;28;20035;-80
2023/12/30 15:08:26;;;;;;;8.47;1.70;;;;;;;;;;4975238;28;20050;-81
2023/12/30 15:11:03;;;;;;;5.17;0.90;;;;;;;;;;4989938;28;20091;-80
2023/12/30 15:19:06;;;;;;;6.07;2.37;;;;;;;;;;4978511;28;20046;-79
2023/12/30 15:24:39;;;;;;;4.73;1.47;;;;;;;;;;4978415;28;20011;-80
2023/12/30 15:27:08;;;;;;;8.10;2.20;;;;;;;;;;4973116;28;20074;-80
2023/12/30 15:30:30;;;;;;;8.07;2.83;;;;;;;;;;4972920;28;20023;-79
2023/12/30 15:32:26;;;;;;;10.80;1.80;;;;;;;;;;4973316;28;20029;-79
2023/12/30 15:35:08;;;;;;;;;;;;;;;;;;;;;
2023/12/30 15:38:17;;;;;;;9.15;2.03;;;;;;;;;;4986614;28;20053;-79
2023/12/30 15:46:41;;;;;;;;;;;;;;;;;;;;;
2023/12/30 15:49:20;;;;;;;;;;;;;;;;;;;;;
2023/12/30 15:52:12;;;;;;;5.13;1.27;;;;;;;;;;4985008;28;20034;-80
2023/12/30 15:54:43;;;;;;;5.73;1.03;;;;;;;;;;4985853;28;20030;-80
2023/12/30 15:57:21;;;;;;;5.20;1.33;;;;;;;;;;4973001;28;20015;-79
2023/12/30 16:03:16;;;;;;;9.63;1.10;;;;;;;;;;4985679;28;20029;-80
2023/12/30 16:06:07;;;;;;;3.67;1.30;;;;;;;;;;4972226;28;20031;-80
2023/12/30 16:12:05;;;;;;;;;;;;;;;;;;;;;
2023/12/30 16:15:13;;;;;;;7.60;1.37;;;;;;;;;;4984421;28;20051;-79
2023/12/30 16:17:50;;;;;;;10.30;1.50;;;;;;;;;;4980962;28;20019;-79
2023/12/30 16:20:34;;;;;;;3.33;1.23;;;;;;;;;;4985119;28;20142;-79
2023/12/30 16:26:22;;;;;;;;;;;;;;;;;;;;;
2023/12/30 16:28:57;;;;;;;6.23;1.17;;;;;;;;;;4983334;28;20059;-79
2023/12/30 16:34:38;;;;;;;3.70;0.90;;;;;;;;;;4972987;28;20066;-79
2023/12/30 16:37:32;;;;;;;;;;;;;;;;;;;;;
2023/12/30 16:40:40;;;;;;;3.47;0.70;;;;;;;;;;4986450;28;20034;-80
2023/12/30 17:07:35;;;;;;;5.70;1.70;;;;;;;;;;4968069;28;20094;-79
2023/12/30 17:10:28;;;;;;;3.73;1.87;;;;;;;;;;4972427;28;20011;-79
2023/12/30 17:13:02;;;;;;;4.73;1.63;;;;;;;;;;4972476;28;20011;-79
2023/12/30 17:15:57;;;;;;;3.07;1.20;;;;;;;;;;5034303;23;20026;-80
2023/12/30 17:18:46;;;;;;;4.97;2.03;;;;;;;;;;4988341;28;20042;-79
2023/12/30 17:26:58;;;;;;;3.83;1.33;;;;;;;;;;4990852;28;20078;-79
2023/12/30 17:30:29;;;;;;;5.23;1.30;;;;;;;;;;4999805;28;20015;-80
2023/12/30 17:32:55;;;;;;;3.80;1.20;;;;;;;;;;5008373;28;20034;-80
2023/12/30 17:36:05;;;;;;;3.10;1.20;;;;;;;;;;5014361;28;20046;-78
2023/12/30 17:47:46;;;;;;;4.13;1.30;;;;;;;;;;5006563;28;20025;-79
2023/12/30 18:06:00;;;;;;;5.83;1.70;;;;;;;;;;4868617;29;20032;-79
2023/12/30 18:09:12;;;;;;;;;;;;;;;;;;;;;
2023/12/30 18:18:22;;;;;;;8.13;2.70;;;;;;;;;;4894932;29;20033;-80
2023/12/30 18:20:56;;;;;;;6.30;1.40;;;;;;;;;;4902362;29;20029;-79
2023/12/30 18:23:33;;;;;;;4.93;1.70;;;;;;;;;;4914831;29;20020;-79
2023/12/30 18:26:25;;;;;;;6.63;1.93;;;;;;;;;;4902924;29;20025;-79
2023/12/30 18:31:55;;;;;;;;;;;;;;;;;;;;;
2023/12/30 18:34:23;;;;;;;2.50;1.03;;;;;;;;;;4994403;28;20076;-79
2023/12/30 18:37:13;;;;;;;4.90;1.20;;;;;;;;;;4993258;28;20042;-78
2023/12/30 18:39:43;;;;;;;6.13;2.00;;;;;;;;;;4995681;28;20034;-79
2023/12/30 18:42:12;;;;;;;5.97;1.93;;;;;;;;;;4990109;28;20018;-79
2023/12/30 18:57:09;;;;;;;3.20;1.40;;;;;;;;;;4912178;29;20060;-79
2023/12/30 19:24:03;;;;;;;1.67;0.80;;;;;;;;;;4980238;28;20064;-79
2023/12/30 19:27:08;;;;;;;;;;;;;;;;;;;;;
2023/12/30 19:33:47;;;;;;;5.45;1.17;;;;;;;;;;4835023;29;20038;-79
2023/12/30 19:42:55;;;;;;;3.80;1.20;;;;;;;;;;4830557;29;20046;-79
2023/12/30 19:45:53;;;;;;;2.47;1.17;;;;;;;;;;4865707;29;20084;-78
2023/12/30 19:49:35;;;;;;;;;;;;;;;;;;;;;
2023/12/30 19:51:48;;;;;;;;;;;;;;;;;;;;;
2023/12/30 22:46:20;;;;;;;;;;;;;;;;;;;;;
2023/12/30 22:58:52;;;;;;;;;;;;;;;;;;;;;
2023/12/30 23:11:11;;;;;;;;;;;;;;;;;;;;;
2023/12/30 23:13:43;;;;;;;3.47;1.70;;;;;;;;;;4943517;28;20016;-77
2023/12/30 23:16:26;;;;;;;3.45;1.55;;;;;;;;;;4930579;29;20084;-78
2023/12/30 23:22:22;;;;;;;1.63;1.10;;;;;;;;;;4895923;28;20031;-78
2023/12/30 23:25:12;;;;;;;4.93;1.63;;;;;;;;;;4893674;28;20031;-78
2023/12/30 23:28:14;;;;;;;;;;;;;;;;;;;;;
2023/12/30 23:31:09;;;;;;;3.73;1.60;;;;;;;;;;5025978;28;20010;-78
2023/12/30 23:34:16;;;;;;;2.57;1.90;;;;;;;;;;5000603;28;20113;-78
2023/12/30 23:40:14;;;;;;;2.10;1.20;;;;;;;;;;4940011;29;20073;-79
2023/12/30 23:43:10;;;;;;;;;;;;;;;;;;;;;
2023/12/30 23:49:00;;;;;;;;;;;;;;;;;;;;;
2023/12/30 23:51:37;;;;;;;;;;;;;;;;;;;;;
2023/12/30 23:54:46;;;;;;;3.87;1.80;;;;;;;;;;4902294;29;20048;-79
2023/12/30 23:58:09;;;;;;;;;;;;;;;;;;;;;
